Time;durP1;ratioP1;P1;durP2;ratioP2;P2;SDS_P1;SDS_P2;PMS_P1;PMS_P2;Temp;Humidity;BMP_temperature;BMP_pressure;BME280_temperature;BME280_humidity;BME280_pressure;Samples;Min_cycle;Max_cycle;Signal;HPM_P1;HPM_P2
2022/04/10 00:01:13;;;;;;;1.77;1.67;;;18.00;39.20;;;;;;5043475;28;20227;-57
2022/04/10 00:03:39;;;;;;;1.53;1.43;;;18.00;39.20;;;;;;5045830;28;20214;-57
2022/04/10 00:06:04;;;;;;;1.40;1.30;;;18.00;39.20;;;;;;5042285;28;20842;-57
2022/04/10 00:08:30;;;;;;;1.40;1.30;;;18.00;39.20;;;;;;5044977;28;20798;-57
2022/04/10 00:10:56;;;;;;;1.70;1.60;;;18.00;39.20;;;;;;5044579;28;20228;-57
2022/04/10 00:13:21;;;;;;;1.23;1.13;;;18.00;39.20;;;;;;5038559;28;20234;-57
2022/04/10 00:15:47;;;;;;;1.30;1.20;;;18.00;39.20;;;;;;5045202;28;20223;-57
2022/04/10 00:18:12;;;;;;;1.57;1.47;;;18.00;39.20;;;;;;5044555;28;20258;-57
2022/04/10 00:20:38;;;;;;;1.60;1.50;;;18.00;39.20;;;;;;5044591;28;20218;-58
2022/04/10 00:23:04;;;;;;;1.87;1.30;;;18.00;39.20;;;;;;5042996;28;20627;-57
2022/04/10 00:25:29;;;;;;;1.70;1.40;;;18.00;39.20;;;;;;5043928;28;20218;-56
2022/04/10 00:27:55;;;;;;;1.40;1.30;;;18.00;39.20;;;;;;5044134;28;20226;-57
2022/04/10 00:30:21;;;;;;;1.40;1.30;;;18.00;39.20;;;;;;5047075;28;20230;-57
2022/04/10 00:32:46;;;;;;;1.53;1.23;;;18.00;39.20;;;;;;5041441;28;20231;-56
2022/04/10 00:35:12;;;;;;;1.60;1.50;;;18.00;39.20;;;;;;5039724;28;20591;-57
2022/04/10 00:37:38;;;;;;;1.40;1.30;;;18.00;39.20;;;;;;5042812;28;20451;-57
2022/04/10 00:40:06;;;;;;;1.30;1.20;;;18.00;39.20;;;;;;5041910;28;20230;-57
2022/04/10 00:42:48;;;;;;;1.53;1.43;;;18.00;39.20;;;;;;5043356;28;20503;-56
2022/04/10 00:45:14;;;;;;;1.50;1.40;;;18.00;39.20;;;;;;5043185;28;20516;-57
2022/04/10 00:47:39;;;;;;;1.30;1.20;;;17.90;39.10;;;;;;5042268;28;20426;-57
2022/04/10 00:50:08;;;;;;;1.90;1.67;;;18.00;39.20;;;;;;5037558;28;20477;-56
2022/04/10 00:52:35;;;;;;;1.40;1.30;;;17.90;39.10;;;;;;5041628;28;20269;-56
2022/04/10 00:55:01;;;;;;;1.50;1.40;;;18.00;39.20;;;;;;5040274;28;20724;-56
2022/04/10 00:57:27;;;;;;;1.37;1.27;;;17.90;39.20;;;;;;5035029;28;20461;-57
2022/04/10 00:59:52;;;;;;;1.50;1.40;;;17.90;39.20;;;;;;5046177;28;20589;-56
2022/04/10 01:02:18;;;;;;;1.40;1.30;;;17.90;39.10;;;;;;5042745;28;20292;-57
2022/04/10 01:04:46;;;;;;;1.70;1.60;;;17.90;39.10;;;;;;5040092;28;20693;-57
2022/04/10 01:07:13;;;;;;;1.60;1.30;;;17.90;39.10;;;;;;5042244;28;20246;-58
2022/04/10 01:09:40;;;;;;;1.37;1.27;;;17.90;39.10;;;;;;5042836;28;20467;-57
2022/04/10 01:12:10;;;;;;;1.20;1.10;;;17.90;39.20;;;;;;5036453;28;20474;-56
2022/04/10 01:14:36;;;;;;;1.40;1.20;;;17.90;39.20;;;;;;5041755;28;20453;-56
2022/04/10 01:17:02;;;;;;;1.40;1.30;;;17.90;39.10;;;;;;5034125;28;20494;-57
2022/04/10 01:19:28;;;;;;;1.33;1.23;;;17.90;39.20;;;;;;5039744;28;20923;-57
2022/04/10 01:22:02;;;;;;;1.40;1.30;;;17.90;39.20;;;;;;5040824;28;20304;-56
2022/04/10 01:24:28;;;;;;;1.60;1.50;;;17.90;39.10;;;;;;5028093;28;20328;-56
2022/04/10 01:26:54;;;;;;;2.03;1.40;;;17.90;39.10;;;;;;5036759;28;20519;-57
2022/04/10 01:29:19;;;;;;;1.70;1.30;;;17.90;39.20;;;;;;5039950;28;20224;-57
2022/04/10 01:31:46;;;;;;;1.30;1.20;;;17.90;39.20;;;;;;5039248;28;20235;-57
2022/04/10 01:34:14;;;;;;;3.70;1.30;;;17.90;39.90;;;;;;5044576;28;20218;-57
2022/04/10 01:36:40;;;;;;;1.40;1.30;;;17.90;39.10;;;;;;5044051;28;20484;-55
2022/04/10 01:39:07;;;;;;;1.80;1.40;;;17.90;39.20;;;;;;5037612;28;20431;-56
2022/04/10 01:41:36;;;;;;;1.30;1.20;;;17.90;39.20;;;;;;5038859;28;20453;-57
2022/04/10 01:44:07;;;;;;;1.60;1.50;;;17.90;39.20;;;;;;5041455;28;20421;-57
2022/04/10 01:46:34;;;;;;;1.43;1.30;;;17.90;39.10;;;;;;5038387;28;20423;-57
2022/04/10 01:49:00;;;;;;;1.60;1.50;;;17.90;39.20;;;;;;5035815;28;20475;-56
2022/04/10 01:51:27;;;;;;;1.40;1.30;;;17.90;39.20;;;;;;5042012;28;20473;-56
2022/04/10 01:53:53;;;;;;;1.80;1.40;;;17.90;39.10;;;;;;5042121;28;20232;-56
2022/04/10 01:56:20;;;;;;;1.37;1.27;;;17.90;39.20;;;;;;5037585;28;20435;-56
2022/04/10 01:58:47;;;;;;;1.40;1.30;;;17.90;39.20;;;;;;5040257;28;20460;-57
2022/04/10 02:01:16;;;;;;;1.80;1.57;;;17.90;39.20;;;;;;5025378;28;20433;-57
2022/04/10 02:03:43;;;;;;;1.53;1.43;;;17.90;39.20;;;;;;5042010;28;20451;-58
2022/04/10 02:06:11;;;;;;;1.60;1.50;;;17.90;39.20;;;;;;5037676;28;20468;-56
2022/04/10 02:08:38;;;;;;;1.50;1.40;;;17.90;39.20;;;;;;5039627;28;20431;-57
2022/04/10 02:11:15;;;;;;;1.17;1.07;;;17.90;39.10;;;;;;5037760;28;20463;-56
2022/04/10 02:13:42;;;;;;;1.30;1.20;;;17.90;39.10;;;;;;5044258;28;20434;-57
2022/04/10 02:16:11;;;;;;;1.17;1.07;;;17.90;39.20;;;;;;5041750;28;20493;-57
2022/04/10 02:18:37;;;;;;;1.40;1.30;;;17.90;39.10;;;;;;5042691;28;20446;-57
2022/04/10 02:21:03;;;;;;;1.47;1.37;;;17.90;39.20;;;;;;5040388;28;20850;-57
2022/04/10 02:23:29;;;;;;;1.53;1.10;;;17.90;39.20;;;;;;5042713;28;20214;-56
2022/04/10 02:25:55;;;;;;;1.40;1.30;;;17.90;39.10;;;;;;5035656;28;20489;-56
2022/04/10 02:28:20;;;;;;;1.60;1.20;;;17.90;39.10;;;;;;5041096;28;20218;-57
2022/04/10 02:30:46;;;;;;;1.50;1.40;;;17.90;39.20;;;;;;5038470;28;20302;-57
2022/04/10 02:33:11;;;;;;;1.40;1.30;;;17.90;39.10;;;;;;5035388;28;20713;-57
2022/04/10 02:35:37;;;;;;;1.27;1.17;;;17.90;39.10;;;;;;5041239;28;20742;-57
2022/04/10 02:38:03;;;;;;;2.00;1.43;;;17.90;39.20;;;;;;5044898;28;20229;-56
2022/04/10 02:40:28;;;;;;;1.23;1.13;;;17.90;39.20;;;;;;5042270;28;20336;-57
2022/04/10 02:42:54;;;;;;;1.60;1.47;;;17.90;39.10;;;;;;5040903;28;20683;-57
2022/04/10 02:45:19;;;;;;;1.30;1.20;;;17.90;39.10;;;;;;5039863;28;20222;-56
2022/04/10 02:47:45;;;;;;;1.60;1.40;;;17.90;39.10;;;;;;5033998;28;20219;-57
2022/04/10 02:50:13;;;;;;;1.53;1.30;;;17.90;39.10;;;;;;5039631;28;20581;-56
2022/04/10 02:52:40;;;;;;;1.50;1.40;;;17.90;39.20;;;;;;5039967;28;20303;-56
2022/04/10 02:55:07;;;;;;;1.47;1.37;;;17.90;39.10;;;;;;5036322;28;20444;-58
2022/04/10 02:57:33;;;;;;;1.30;1.20;;;17.90;39.10;;;;;;5040015;28;20439;-57
2022/04/10 02:59:59;;;;;;;1.40;1.10;;;17.90;39.10;;;;;;5043108;28;20754;-57
2022/04/10 03:02:24;;;;;;;1.67;1.57;;;17.90;39.20;;;;;;5038236;28;20452;-57
2022/04/10 03:04:50;;;;;;;1.70;1.23;;;17.90;39.10;;;;;;5034403;28;20215;-56
2022/04/10 03:07:15;;;;;;;1.57;1.47;;;17.80;39.00;;;;;;5041715;28;20226;-58
2022/04/10 03:09:41;;;;;;;1.30;1.20;;;17.90;39.10;;;;;;5035117;28;20223;-56
2022/04/10 03:12:08;;;;;;;1.40;1.30;;;17.80;39.00;;;;;;5035019;28;20262;-56
2022/04/10 03:14:34;;;;;;;1.27;1.17;;;17.80;39.00;;;;;;5041871;28;20226;-57
2022/04/10 03:17:00;;;;;;;1.20;1.10;;;17.80;39.00;;;;;;5042559;28;20427;-56
2022/04/10 03:19:26;;;;;;;1.50;1.30;;;17.90;39.10;;;;;;5026005;28;20433;-57
2022/04/10 03:21:51;;;;;;;1.27;1.17;;;17.80;39.00;;;;;;5042162;28;20231;-57
2022/04/10 03:24:17;;;;;;;1.40;1.30;;;17.80;39.00;;;;;;5043773;28;20458;-57
2022/04/10 03:26:42;;;;;;;1.20;1.10;;;17.80;39.00;;;;;;5036570;28;20229;-57
2022/04/10 03:29:09;;;;;;;1.30;1.20;;;17.90;39.10;;;;;;5044147;28;20277;-59
2022/04/10 03:31:35;;;;;;;1.30;1.20;;;17.90;39.10;;;;;;5046218;28;20235;-57
2022/04/10 03:34:00;;;;;;;1.20;1.10;;;17.80;39.00;;;;;;5044377;28;20953;-57
2022/04/10 03:36:26;;;;;;;1.30;1.20;;;17.90;39.80;;;;;;5048713;28;20222;-56
2022/04/10 03:38:51;;;;;;;1.60;1.43;;;17.80;39.00;;;;;;5044701;28;20214;-57
2022/04/10 03:41:17;;;;;;;1.97;1.30;;;17.80;39.00;;;;;;5039822;28;20273;-57
2022/04/10 03:43:42;;;;;;;1.30;1.20;;;17.80;38.90;;;;;;5046138;28;20214;-56
2022/04/10 03:46:08;;;;;;;1.10;1.00;;;17.90;39.00;;;;;;5041620;28;20727;-56
2022/04/10 03:48:33;;;;;;;1.20;1.10;;;17.80;39.00;;;;;;5038061;28;20700;-58
2022/04/10 03:50:59;;;;;;;1.23;1.13;;;17.90;39.00;;;;;;5044136;28;20702;-56
2022/04/10 03:53:25;;;;;;;1.63;1.53;;;17.80;39.00;;;;;;5047698;28;20272;-56
2022/04/10 03:55:51;;;;;;;1.40;1.30;;;17.80;38.90;;;;;;5044399;28;20261;-58
2022/04/10 03:58:16;;;;;;;1.20;1.10;;;17.80;38.90;;;;;;5041062;28;20339;-57
2022/04/10 04:00:44;;;;;;;1.33;1.23;;;17.80;38.90;;;;;;5040318;28;20745;-57
2022/04/10 04:03:09;;;;;;;1.97;1.20;;;17.80;38.90;;;;;;5041943;28;20227;-56
2022/04/10 04:05:35;;;;;;;1.43;1.33;;;17.80;39.00;;;;;;5045077;28;20757;-59
2022/04/10 04:08:01;;;;;;;1.33;1.10;;;17.80;39.00;;;;;;5041144;28;20322;-57
2022/04/10 04:10:27;;;;;;;1.23;1.13;;;17.80;38.90;;;;;;5040029;28;20738;-56
2022/04/10 04:12:52;;;;;;;1.30;1.20;;;17.80;39.00;;;;;;5044305;28;20245;-57
2022/04/10 04:15:18;;;;;;;1.40;1.30;;;17.80;39.00;;;;;;5040017;28;20218;-57
2022/04/10 04:17:43;;;;;;;1.57;1.33;;;17.80;38.90;;;;;;5038715;28;20357;-57
2022/04/10 04:20:09;;;;;;;1.67;1.50;;;17.80;39.00;;;;;;5044320;28;20272;-57
2022/04/10 04:22:35;;;;;;;1.10;1.00;;;17.80;38.90;;;;;;5041036;28;20731;-56
2022/04/10 04:25:03;;;;;;;1.50;1.40;;;17.80;39.00;;;;;;5037076;28;21398;-57
2022/04/10 04:27:28;;;;;;;1.60;1.40;;;17.80;38.90;;;;;;5044490;28;20462;-57
2022/04/10 04:29:54;;;;;;;1.33;1.20;;;17.80;38.90;;;;;;5042208;28;20480;-58
2022/04/10 04:32:19;;;;;;;1.40;1.30;;;17.80;38.90;;;;;;5040362;28;20234;-56
2022/04/10 04:34:47;;;;;;;1.10;1.00;;;17.80;38.90;;;;;;5040878;28;20250;-57
2022/04/10 04:37:12;;;;;;;1.40;1.30;;;17.80;38.90;;;;;;5043106;28;20227;-57
2022/04/10 04:39:38;;;;;;;1.50;1.30;;;17.80;38.90;;;;;;5040509;28;20422;-57
2022/04/10 04:42:04;;;;;;;1.63;1.40;;;17.80;38.90;;;;;;5036928;28;20232;-57
2022/04/10 04:44:30;;;;;;;1.30;1.00;;;17.80;38.80;;;;;;5040282;28;20226;-57
2022/04/10 04:46:57;;;;;;;1.10;1.00;;;17.80;38.80;;;;;;5034968;28;20230;-56
2022/04/10 04:49:23;;;;;;;1.30;1.20;;;17.80;38.80;;;;;;5029572;28;21118;-57
2022/04/10 04:51:48;;;;;;;1.47;1.37;;;17.80;38.80;;;;;;5042362;28;20574;-56
2022/04/10 04:54:14;;;;;;;1.40;1.30;;;17.80;38.80;;;;;;5039560;28;20219;-56
2022/04/10 04:56:39;;;;;;;1.30;1.20;;;17.80;38.90;;;;;;5040073;28;20226;-57
2022/04/10 04:59:05;;;;;;;1.50;1.40;;;17.80;38.80;;;;;;5042784;28;20218;-56
2022/04/10 05:01:31;;;;;;;1.40;1.30;;;17.80;38.80;;;;;;5038153;28;21781;-56
2022/04/10 05:03:56;;;;;;;1.23;1.13;;;17.80;38.80;;;;;;5038013;28;20227;-57
2022/04/10 05:06:22;;;;;;;1.33;1.23;;;17.90;39.00;;;;;;5043507;28;20781;-56
2022/04/10 05:08:47;;;;;;;1.30;1.20;;;17.80;38.80;;;;;;5044833;28;20223;-57
2022/04/10 05:11:14;;;;;;;1.63;1.37;;;17.90;38.80;;;;;;5038293;28;20221;-57
2022/04/10 05:13:40;;;;;;;1.10;1.00;;;17.80;38.80;;;;;;5043161;28;20582;-57
2022/04/10 05:16:06;;;;;;;1.37;1.27;;;17.90;38.80;;;;;;5038698;28;20423;-56
2022/04/10 05:18:32;;;;;;;1.40;1.30;;;17.90;38.80;;;;;;5034065;28;20435;-56
2022/04/10 05:20:57;;;;;;;1.40;1.30;;;17.90;38.80;;;;;;5041492;28;20225;-57
2022/04/10 05:23:23;;;;;;;1.30;1.20;;;17.90;38.70;;;;;;5038020;28;20744;-57
2022/04/10 05:25:50;;;;;;;1.20;1.10;;;17.90;38.70;;;;;;5036578;28;20663;-56
2022/04/10 05:28:16;;;;;;;1.40;1.20;;;17.90;38.70;;;;;;5042451;28;20269;-56
2022/04/10 05:30:42;;;;;;;1.60;1.50;;;17.90;38.70;;;;;;5043051;28;20797;-56
2022/04/10 05:33:08;;;;;;;2.43;2.23;;;17.90;38.70;;;;;;5039743;28;20433;-56
2022/04/10 05:35:34;;;;;;;1.50;1.40;;;17.90;38.60;;;;;;5042675;28;20467;-56
2022/04/10 05:38:00;;;;;;;1.67;1.57;;;17.90;38.60;;;;;;5039474;28;20494;-56
2022/04/10 05:40:26;;;;;;;1.20;1.10;;;17.90;38.60;;;;;;5025352;28;20225;-58
2022/04/10 05:42:51;;;;;;;1.57;1.47;;;17.90;38.60;;;;;;5040144;28;20230;-58
2022/04/10 05:45:17;;;;;;;1.67;1.40;;;17.90;38.60;;;;;;5040284;28;20235;-58
2022/04/10 05:47:43;;;;;;;1.37;1.27;;;17.90;38.60;;;;;;5039116;28;20226;-56
2022/04/10 05:50:10;;;;;;;1.70;1.60;;;17.90;38.50;;;;;;5041745;28;20238;-56
2022/04/10 05:52:45;;;;;;;1.30;1.20;;;17.90;38.60;;;;;;5041588;28;20529;-56
2022/04/10 05:55:12;;;;;;;1.33;1.23;;;17.90;38.50;;;;;;5040675;28;20453;-56
2022/04/10 05:57:38;;;;;;;1.30;1.20;;;17.90;38.50;;;;;;5037355;28;20505;-57
2022/04/10 06:00:06;;;;;;;1.50;1.40;;;17.90;38.50;;;;;;5038861;28;20462;-57
2022/04/10 06:02:32;;;;;;;1.43;1.20;;;17.90;38.50;;;;;;5033914;28;20498;-57
2022/04/10 06:04:58;;;;;;;1.50;1.40;;;18.00;38.60;;;;;;5043738;28;20479;-57
2022/04/10 06:07:23;;;;;;;1.57;1.47;;;17.90;38.40;;;;;;5038818;28;20238;-56
2022/04/10 06:09:49;;;;;;;1.43;1.33;;;18.00;38.60;;;;;;5041920;28;20230;-57
2022/04/10 06:12:15;;;;;;;1.20;1.10;;;18.00;38.50;;;;;;5038223;28;20330;-57
2022/04/10 06:14:40;;;;;;;1.60;1.40;;;18.00;38.60;;;;;;5039274;28;20298;-56
2022/04/10 06:17:07;;;;;;;1.63;1.30;;;17.90;38.40;;;;;;5033368;28;20220;-56
2022/04/10 06:19:35;;;;;;;1.53;1.43;;;18.00;38.50;;;;;;5044103;28;20222;-56
2022/04/10 06:22:01;;;;;;;2.00;1.20;;;18.00;38.50;;;;;;5035993;28;20474;-56
2022/04/10 06:24:27;;;;;;;1.40;1.30;;;18.00;38.50;;;;;;5039320;28;20870;-57
2022/04/10 06:26:53;;;;;;;1.50;1.40;;;18.00;38.50;;;;;;5040983;28;20230;-56
2022/04/10 06:29:20;;;;;;;1.27;1.17;;;18.00;38.50;;;;;;5044601;28;20223;-57
2022/04/10 06:31:46;;;;;;;1.30;1.20;;;18.00;38.50;;;;;;5033955;28;20434;-57
2022/04/10 06:34:12;;;;;;;1.50;1.40;;;18.00;38.50;;;;;;5039985;28;20488;-58
2022/04/10 06:36:38;;;;;;;1.53;1.43;;;18.00;38.40;;;;;;5045270;28;20430;-57
2022/04/10 06:39:04;;;;;;;1.23;1.13;;;18.00;38.50;;;;;;5033818;28;20253;-56
2022/04/10 06:41:30;;;;;;;1.50;1.40;;;18.00;38.50;;;;;;5040170;28;20426;-56
2022/04/10 06:43:56;;;;;;;1.47;1.37;;;18.00;38.50;;;;;;5042791;28;20459;-56
2022/04/10 06:46:21;;;;;;;1.20;1.10;;;18.00;38.40;;;;;;5039457;28;20219;-57
2022/04/10 06:48:47;;;;;;;1.30;1.20;;;18.00;38.40;;;;;;5037332;28;20703;-57
2022/04/10 06:51:13;;;;;;;1.30;1.20;;;18.00;38.40;;;;;;5044154;28;20309;-56
2022/04/10 06:53:38;;;;;;;3.33;1.33;;;18.00;38.30;;;;;;5048714;28;20297;-56
2022/04/10 06:56:04;;;;;;;1.50;1.40;;;18.00;38.20;;;;;;5042656;28;20238;-57
2022/04/10 06:58:30;;;;;;;1.80;1.30;;;18.00;38.30;;;;;;5045319;28;20215;-56
2022/04/10 07:00:55;;;;;;;1.50;1.40;;;18.00;38.20;;;;;;5039221;28;20230;-56
2022/04/10 07:03:21;;;;;;;10.53;1.50;;;18.00;38.20;;;;;;5044117;28;20231;-56
2022/04/10 07:05:48;;;;;;;1.53;1.40;;;18.00;38.20;;;;;;5041330;28;20226;-56
2022/04/10 07:08:15;;;;;;;1.40;1.30;;;18.00;38.30;;;;;;5043126;28;20259;-56
2022/04/10 07:10:40;;;;;;;1.40;1.30;;;18.00;38.20;;;;;;5044621;28;20426;-56
2022/04/10 07:13:06;;;;;;;1.60;1.27;;;18.00;38.20;;;;;;5045789;28;20778;-57
2022/04/10 07:15:32;;;;;;;1.80;1.20;;;18.00;38.20;;;;;;5041622;28;20262;-56
2022/04/10 07:17:58;;;;;;;1.20;1.10;;;18.00;39.00;;;;;;5042161;28;20233;-57
2022/04/10 07:20:24;;;;;;;1.60;1.50;;;18.00;38.20;;;;;;5045142;28;20226;-57
2022/04/10 07:25:35;;;;;;;2.80;1.40;;;18.00;38.20;;;;;;5042002;28;20497;-57
2022/04/10 07:28:01;;;;;;;1.40;1.30;;;18.00;38.30;;;;;;5042667;28;20452;-57
2022/04/10 07:30:27;;;;;;;1.13;1.03;;;18.00;38.20;;;;;;5041521;28;20802;-57
2022/04/10 07:32:53;;;;;;;1.43;1.33;;;18.00;38.20;;;;;;5029889;28;20442;-57
2022/04/10 07:35:19;;;;;;;2.10;1.30;;;18.00;38.20;;;;;;5045229;28;20259;-57
2022/04/10 07:37:46;;;;;;;1.20;1.10;;;18.00;38.20;;;;;;5044232;28;20464;-57
2022/04/10 07:40:11;;;;;;;1.77;1.20;;;18.00;38.20;;;;;;5049367;28;20229;-58
2022/04/10 07:42:44;;;;;;;1.20;1.10;;;18.00;38.20;;;;;;5047476;28;20418;-57
2022/04/10 07:47:58;;;;;;;2.40;1.40;;;18.10;38.30;;;;;;5039830;28;20454;-58
2022/04/10 07:50:24;;;;;;;1.33;1.23;;;18.00;38.20;;;;;;5045692;28;20789;-57
2022/04/10 07:52:50;;;;;;;1.50;1.40;;;18.00;38.30;;;;;;5041216;28;20467;-57
2022/04/10 07:55:16;;;;;;;1.30;1.20;;;18.00;38.20;;;;;;5043163;28;20223;-58
2022/04/10 07:57:41;;;;;;;1.93;1.20;;;18.00;38.30;;;;;;5045275;28;20214;-57
2022/04/10 08:00:07;;;;;;;1.27;1.17;;;18.00;38.30;;;;;;5042827;28;20280;-57
2022/04/10 08:02:33;;;;;;;1.20;1.10;;;18.00;38.20;;;;;;5043206;28;20234;-58
2022/04/10 08:04:58;;;;;;;2.20;1.30;;;18.00;38.30;;;;;;5040533;28;20214;-57
2022/04/10 08:07:24;;;;;;;2.37;1.33;;;18.00;38.30;;;;;;5040076;28;20239;-57
2022/04/10 08:09:49;;;;;;;1.30;1.20;;;18.00;38.30;;;;;;5037697;28;20309;-57
2022/04/10 08:12:15;;;;;;;3.07;1.47;;;18.10;38.40;;;;;;5040038;28;20242;-57
2022/04/10 08:14:43;;;;;;;2.60;1.27;;;18.00;38.30;;;;;;5026215;28;20246;-56
2022/04/10 08:17:11;;;;;;;1.57;1.40;;;18.00;38.30;;;;;;5040438;28;20257;-57
2022/04/10 08:19:37;;;;;;;1.30;1.17;;;18.00;38.30;;;;;;5045356;28;20446;-58
2022/04/10 08:22:03;;;;;;;1.30;1.20;;;18.10;38.50;;;;;;5041743;28;20427;-57
2022/04/10 08:24:29;;;;;;;1.23;1.13;;;18.10;38.40;;;;;;5040715;28;20467;-56
2022/04/10 08:26:55;;;;;;;1.40;1.30;;;18.00;38.30;;;;;;5039673;28;20521;-57
2022/04/10 08:29:20;;;;;;;1.20;1.10;;;18.00;38.30;;;;;;5024502;28;20222;-56
2022/04/10 08:31:46;;;;;;;1.10;1.00;;;18.10;38.40;;;;;;5018595;28;20246;-57
2022/04/10 08:34:11;;;;;;;1.50;1.30;;;18.10;38.50;;;;;;5040671;28;20234;-58
2022/04/10 08:36:37;;;;;;;1.30;1.20;;;18.10;38.50;;;;;;5041651;28;20277;-57
2022/04/10 08:39:03;;;;;;;1.33;1.23;;;18.00;38.40;;;;;;5043445;28;20218;-57
2022/04/10 08:41:32;;;;;;;1.30;1.20;;;18.00;38.40;;;;;;5044089;28;20571;-56
2022/04/10 08:44:01;;;;;;;2.87;1.20;;;18.10;38.50;;;;;;5038144;28;20613;-57
2022/04/10 08:46:28;;;;;;;1.60;1.10;;;18.00;38.50;;;;;;5041945;28;20466;-57
2022/04/10 08:48:55;;;;;;;1.30;1.17;;;18.10;39.30;;;;;;5043509;28;20435;-57
2022/04/10 08:51:23;;;;;;;1.40;1.30;;;18.10;38.60;;;;;;5036001;28;20455;-58
2022/04/10 08:53:50;;;;;;;1.00;0.93;;;18.10;38.60;;;;;;5041014;28;20445;-57
2022/04/10 08:56:15;;;;;;;1.50;1.40;;;18.10;38.60;;;;;;5044650;28;20558;-57
2022/04/10 08:58:41;;;;;;;1.73;0.90;;;18.00;38.50;;;;;;5043455;28;20525;-57
2022/04/10 09:01:11;;;;;;;1.60;1.50;;;18.10;38.60;;;;;;5042144;28;20614;-56
2022/04/10 09:03:37;;;;;;;1.77;1.40;;;18.10;38.60;;;;;;5045640;28;20234;-57
2022/04/10 09:06:09;;;;;;;4.97;1.60;;;18.10;38.60;;;;;;5043134;28;21007;-57
2022/04/10 09:08:35;;;;;;;1.80;1.00;;;18.10;38.60;;;;;;5026910;28;20810;-56
2022/04/10 09:11:05;;;;;;;1.87;1.20;;;18.00;38.60;;;;;;5042945;28;20427;-57
2022/04/10 09:13:37;;;;;;;1.17;0.90;;;18.10;38.60;;;;;;5037903;28;20975;-57
2022/04/10 09:16:12;;;;;;;1.67;1.30;;;18.00;38.60;;;;;;5037337;28;20518;-57
2022/04/10 09:18:58;;;;;;;1.37;1.27;;;18.10;38.70;;;;;;5040942;28;20449;-59
2022/04/10 09:21:29;;;;;;;1.33;1.23;;;18.10;38.70;;;;;;5038606;28;20785;-58
2022/04/10 09:24:05;;;;;;;1.57;1.47;;;18.00;38.60;;;;;;5037737;28;20435;-57
2022/04/10 09:26:45;;;;;;;1.30;1.10;;;18.00;38.60;;;;;;5042367;28;20486;-57
2022/04/10 09:29:12;;;;;;;1.33;1.23;;;18.00;38.70;;;;;;5038411;28;20513;-56
2022/04/10 09:31:38;;;;;;;1.30;1.20;;;18.00;38.70;;;;;;5037974;28;20434;-57
2022/04/10 09:34:13;;;;;;;3.40;1.20;;;18.00;38.60;;;;;;5041821;28;20432;-57
2022/04/10 09:36:47;;;;;;;148.73;17.53;;;18.10;38.70;;;;;;5034414;28;20306;-57
2022/04/10 09:39:30;;;;;;;80.57;14.00;;;18.10;38.70;;;;;;5037756;28;20965;-57
2022/04/10 09:42:05;;;;;;;59.23;10.03;;;18.10;38.70;;;;;;5040791;28;20441;-56
2022/04/10 09:44:37;;;;;;;45.53;6.50;;;18.10;38.60;;;;;;5042077;28;20925;-57
2022/04/10 09:47:08;;;;;;;12.70;5.23;;;18.20;38.60;;;;;;5037482;28;20417;-57
2022/04/10 09:49:41;;;;;;;26.77;5.90;;;18.20;38.70;;;;;;5038864;28;20438;-58
2022/04/10 09:52:17;;;;;;;14.00;4.13;;;18.20;38.70;;;;;;5036379;28;21536;-57
2022/04/10 09:54:46;;;;;;;17.10;4.83;;;18.20;38.60;;;;;;5042844;28;20455;-58
2022/04/10 09:57:17;;;;;;;12.57;3.93;;;18.20;38.60;;;;;;5040356;28;20814;-57
2022/04/10 09:59:47;;;;;;;12.40;3.20;;;18.20;38.60;;;;;;5038254;28;20457;-57
2022/04/10 10:02:15;;;;;;;8.77;3.00;;;18.30;38.50;;;;;;5038204;28;20603;-57
2022/04/10 10:04:42;;;;;;;9.93;2.80;;;18.30;38.50;;;;;;5040029;28;20900;-57
2022/04/10 10:07:08;;;;;;;6.07;2.60;;;18.30;38.50;;;;;;5036651;28;20446;-57
2022/04/10 10:09:35;;;;;;;9.67;3.37;;;18.30;38.50;;;;;;5021604;28;20417;-57
2022/04/10 10:12:02;;;;;;;5.13;2.47;;;18.30;38.30;;;;;;5042106;28;20227;-57
2022/04/10 10:14:30;;;;;;;5.57;2.13;;;18.30;38.30;;;;;;5042206;28;20438;-58
2022/04/10 10:16:58;;;;;;;2.87;2.47;;;18.30;38.30;;;;;;5038917;28;20548;-58
2022/04/10 10:19:25;;;;;;;7.23;3.03;;;18.40;38.40;;;;;;5040511;28;20450;-57
2022/04/10 10:21:51;;;;;;;4.13;2.60;;;18.40;38.40;;;;;;5037014;28;20577;-56
2022/04/10 10:24:19;;;;;;;3.80;2.20;;;18.40;38.40;;;;;;5040581;28;20518;-57
2022/04/10 10:26:50;;;;;;;4.37;2.57;;;18.40;38.50;;;;;;5042468;28;20465;-56
2022/04/10 10:29:35;;;;;;;3.87;2.13;;;18.40;38.50;;;;;;5040275;28;21128;-57
2022/04/10 10:32:15;;;;;;;3.30;2.10;;;18.40;38.50;;;;;;5041063;28;20485;-58
2022/04/10 10:34:42;;;;;;;2.53;2.20;;;18.40;38.60;;;;;;5042348;28;20435;-56
2022/04/10 10:37:08;;;;;;;2.00;1.90;;;18.40;38.60;;;;;;5037197;28;20455;-57
2022/04/10 10:39:49;;;;;;;5.27;2.10;;;18.40;38.70;;;;;;5037822;28;20833;-57
2022/04/10 10:42:15;;;;;;;5.73;1.80;;;18.40;38.70;;;;;;5041278;28;20224;-57
2022/04/10 10:44:51;;;;;;;6.10;2.37;;;18.40;38.70;;;;;;5041887;28;20414;-57
2022/04/10 10:47:24;;;;;;;3.60;2.00;;;18.30;38.70;;;;;;5040434;28;20225;-58
2022/04/10 10:49:53;;;;;;;2.47;2.27;;;18.30;38.70;;;;;;5038590;28;20426;-57
2022/04/10 10:52:19;;;;;;;1.80;1.70;;;18.30;38.80;;;;;;5037387;28;20451;-56
2022/04/10 10:54:50;;;;;;;2.77;1.70;;;18.30;38.80;;;;;;5040996;28;20425;-56
2022/04/10 10:57:38;;;;;;;3.90;2.00;;;18.30;38.80;;;;;;5036167;28;20850;-57
2022/04/10 11:00:16;;;;;;;3.77;1.83;;;18.30;38.80;;;;;;5037227;28;20941;-57
2022/04/10 11:02:48;;;;;;;2.80;2.00;;;18.30;38.90;;;;;;5035510;28;20915;-56
2022/04/10 11:05:29;;;;;;;2.43;2.20;;;18.30;38.90;;;;;;5036171;28;20422;-57
2022/04/10 11:08:09;;;;;;;3.47;2.00;;;18.30;38.90;;;;;;5040662;28;20472;-57
2022/04/10 11:10:39;;;;;;;2.57;1.77;;;18.30;38.80;;;;;;5041426;28;20461;-57
2022/04/10 11:13:07;;;;;;;2.30;2.03;;;18.30;38.90;;;;;;5035802;28;20520;-57
2022/04/10 11:15:51;;;;;;;2.40;1.67;;;18.30;38.90;;;;;;5037376;28;20457;-57
2022/04/10 11:18:37;;;;;;;5.73;1.43;;;18.30;39.70;;;;;;5038316;28;20459;-58
2022/04/10 11:21:15;;;;;;;2.83;1.43;;;18.30;38.90;;;;;;5036303;28;20507;-56
2022/04/10 11:23:45;;;;;;;4.17;2.37;;;18.30;38.90;;;;;;5037112;28;20516;-56
2022/04/10 11:26:19;;;;;;;1.97;1.40;;;18.30;39.00;;;;;;5014828;28;20432;-57
2022/04/10 11:29:02;;;;;;;2.03;1.93;;;18.30;38.90;;;;;;5038417;28;20512;-57
2022/04/10 11:31:35;;;;;;;2.63;1.60;;;18.30;39.00;;;;;;5039027;28;20437;-58
2022/04/10 11:34:11;;;;;;;3.33;1.47;;;18.30;39.00;;;;;;5037649;28;20475;-56
2022/04/10 11:36:52;;;;;;;1.80;1.50;;;18.30;39.00;;;;;;5035525;28;20421;-56
2022/04/10 11:39:22;;;;;;;4.90;1.40;;;18.30;38.90;;;;;;5043990;28;20438;-57
2022/04/10 11:41:49;;;;;;;2.60;1.50;;;18.30;39.00;;;;;;5039730;28;21956;-57
2022/04/10 11:44:15;;;;;;;2.70;1.40;;;18.30;39.00;;;;;;5036826;28;20820;-56
2022/04/10 11:46:44;;;;;;;1.90;1.43;;;18.30;39.00;;;;;;5045009;28;20455;-56
2022/04/10 11:49:10;;;;;;;1.93;1.53;;;18.30;39.00;;;;;;5044190;28;21015;-56
2022/04/10 11:51:52;;;;;;;2.93;1.47;;;18.30;39.00;;;;;;5039802;28;20450;-56
2022/04/10 11:54:28;;;;;;;2.63;1.50;;;18.30;39.00;;;;;;5040430;28;20214;-56
2022/04/10 11:56:55;;;;;;;2.07;1.50;;;18.30;39.00;;;;;;5044211;28;20430;-56
2022/04/10 11:59:21;;;;;;;1.60;1.33;;;18.30;39.00;;;;;;5045417;28;20452;-56
2022/04/10 12:01:51;;;;;;;3.07;1.50;;;18.30;39.10;;;;;;5044267;28;20437;-57
2022/04/10 12:04:18;;;;;;;5.00;1.50;;;18.30;39.20;;;;;;5043899;28;20468;-57
2022/04/10 12:06:44;;;;;;;3.73;1.93;;;18.30;39.10;;;;;;5043238;28;20462;-56
2022/04/10 12:09:09;;;;;;;1.30;1.20;;;18.30;39.10;;;;;;5041915;28;20418;-57
2022/04/10 12:11:43;;;;;;;2.37;1.97;;;18.30;39.20;;;;;;5044006;28;20249;-57
2022/04/10 12:14:26;;;;;;;1.60;1.50;;;18.30;39.20;;;;;;5040847;28;20226;-57
2022/04/10 12:16:53;;;;;;;1.60;1.50;;;18.30;39.20;;;;;;5040341;28;20442;-58
2022/04/10 12:19:30;;;;;;;1.90;1.53;;;18.30;39.30;;;;;;5043940;28;20458;-57
2022/04/10 12:21:56;;;;;;;2.57;1.47;;;18.20;39.20;;;;;;5039574;28;20430;-57
2022/04/10 12:24:21;;;;;;;2.03;1.60;;;18.20;39.20;;;;;;5042742;28;20433;-57
2022/04/10 12:26:49;;;;;;;4.60;1.50;;;18.20;39.10;;;;;;5044243;28;20223;-58
2022/04/10 12:29:15;;;;;;;2.20;1.47;;;18.20;39.10;;;;;;5040495;28;20905;-55
2022/04/10 12:31:41;;;;;;;1.63;1.50;;;18.20;39.00;;;;;;5026791;28;20442;-57
2022/04/10 12:34:10;;;;;;;3.00;1.63;;;18.20;38.90;;;;;;5042346;28;20235;-57
2022/04/10 12:36:47;;;;;;;4.03;1.50;;;18.20;38.80;;;;;;5039972;28;20449;-56
2022/04/10 12:39:45;;;;;;;2.10;1.50;;;18.20;38.80;;;;;;5034179;28;20803;-57
2022/04/10 12:42:20;;;;;;;1.80;1.70;;;18.20;38.70;;;;;;5016665;28;20437;-56
2022/04/10 12:44:56;;;;;;;1.17;1.07;;;18.20;38.70;;;;;;5042439;28;20443;-57
2022/04/10 12:47:45;;;;;;;2.43;1.17;;;18.20;38.70;;;;;;5042567;28;20462;-57
2022/04/10 12:50:13;;;;;;;1.40;1.30;;;18.20;38.60;;;;;;5016681;28;20779;-57
2022/04/10 12:52:40;;;;;;;1.37;1.27;;;18.20;38.50;;;;;;5041562;28;20450;-58
2022/04/10 12:55:19;;;;;;;1.97;1.40;;;18.20;38.50;;;;;;5044091;28;20456;-58